Latest Coastal Weather Observations for Troughton Island

IDD60701

Issued at 4:55 pm CST Saturday 29 November 2014 (issued every 10 minutes, with the page automatically refreshed every 10 minutes)

About coastal observations | Map of coastal stations | Coastal observations for NT | Marine services | Other Formats
Station Details ID: 001007 Name: TROUGHTON ISLAND Lat: -13.75 Lon: 126.15 Height: 6.0 m
Data from the previous 72 hours. | See also: Recent months at Troughton Island
Date/Time
CST
Temp

°C
Wind Pressure Rain
since 9am
mm
Weather Cloud Vis
km
Sea
Height
m
Swell
Dir
 
Speed
knots
Gust
knots
hPa Trend Height
m
Period
s
Dir
29/04:30pm 32.7 WNW 9 11 1005.0 - 0.0 - - - - - - -
29/04:00pm 32.8 W 8 10 1005.6 - 0.0 - - - - - - -
29/03:30pm 32.4 WNW 9 10 1005.9 - 0.0 - - - - - - -
29/03:00pm 32.3 NW 9 11 1006.0 - 0.0 - - - - - - -
29/02:30pm 32.7 WNW 8 10 1006.5 - 0.0 - - - - - - -
29/02:00pm 33.5 WNW 8 10 1006.9 - 0.0 - - - - - - -
29/01:30pm 32.5 WNW 8 10 1007.2 - 0.0 - - - - - - -
29/01:00pm 32.1 W 7 9 1007.8 - 0.0 - - - - - - -
29/12:30pm 32.2 W 6 8 1008.3 - 0.0 - - - - - - -
29/12:00pm 31.3 W 7 9 1008.5 - 0.0 - - - - - - -
29/11:30am 32.5 WNW 8 10 1008.9 - 0.0 - - - - - - -
29/11:00am 32.0 NW 8 10 1008.9 - 0.0 - - - - - - -
29/10:30am 31.7 NW 7 8 1009.1 - 0.0 - - - - - - -
29/10:00am 31.3 WNW 6 8 1009.3 - 0.0 - - - - - - -
29/09:30am 31.2 WNW 6 8 1009.3 - 0.0 - - - - - - -
29/09:00am 30.6 WNW 6 7 1009.3 - 0.0 - - - - - - -
29/08:30am 30.6 WNW 5 6 1009.4 - 0.0 - - - - - - -
29/08:00am 29.9 NW 5 7 1009.3 - 0.0 - - - - - - -
29/07:30am 29.5 NW 6 7 1008.9 - 0.0 - - - - - - -
29/07:00am 28.9 NNW 5 6 1008.9 - 0.0 - - - - - - -
29/06:30am 28.1 NW 5 6 1008.6 - 0.0 - - - - - - -
29/06:00am 28.0 NNW 6 7 1008.1 - 0.0 - - - - - - -
29/05:30am 28.4 NNW 6 7 1007.8 - 0.0 - - - - - - -
29/05:00am 28.1 NNW 5 6 1007.6 - 0.0 - - - - - - -
29/04:30am 28.0 NNW 5 6 1007.5 - 0.0 - - - - - - -
29/04:00am 28.3 N 4 5 1007.5 - 0.0 - - - - - - -
29/03:30am 28.4 NNW 5 6 1007.6 - 0.0 - - - - - - -
29/03:00am 28.3 NW 5 6 1007.6 - 0.0 - - - - - - -
29/02:30am 28.6 WNW 6 7 1007.6 - 0.0 - - - - - - -
29/02:00am 28.5 W 5 7 1007.7 - 0.0 - - - - - - -
29/01:30am 28.5 WNW 6 7 1007.8 - 0.0 - - - - - - -
29/01:00am 28.5 WNW 5 6 1008.4 - 0.0 - - - - - - -
29/12:30am 28.4 NW 4 6 1008.7 - 0.0 - - - - - - -
29/12:00am 28.6 NNW 4 4 1009.1 - 0.0 - - - - - - -
 
Date/Time
CST
Temp

°C
Wind Pressure Rain
since 9am
mm
Weather Cloud Vis
km
Sea
Height
m
Swell
Dir
 
Speed
knots
Gust
knots
hPa Trend Height
m
Period
s
Dir
28/11:30pm 28.8 WNW 3 4 1009.5 - 0.0 - - - - - - -
28/11:00pm 29.2 N 4 5 1009.7 - 0.0 - - - - - - -
28/10:30pm 28.7 WNW 4 5 1009.5 - 0.0 - - - - - - -
28/10:00pm 28.9 CALM 0 3 1009.4 - 0.0 - - - - - - -
28/09:30pm 28.9 NNW 4 5 1009.5 - 0.0 - - - - - - -
28/09:00pm 29.2 NNW 4 5 1009.2 - 0.0 - - - - - - -
28/08:30pm 29.1 NW 4 5 1008.8 - 0.0 - - - - - - -
28/08:00pm 29.4 WNW 4 4 1008.6 - 0.0 - - - - - - -
28/07:30pm 29.6 NW 5 6 1007.8 - 0.0 - - - - - - -
28/07:00pm 30.2 N 5 7 1007.4 - 0.0 - - - - - - -
28/06:30pm 30.4 N 6 8 1007.0 - 0.0 - - - - - - -
28/06:00pm 30.8 NNE 6 9 1007.0 - 0.0 - - - - - - -
28/05:30pm 31.8 NNE 8 10 1006.7 - 0.0 - - - - - - -
28/05:00pm 30.7 N 8 10 1006.5 - 0.0 - - - - - - -
28/04:30pm 31.5 N 8 11 1006.9 - 0.0 - - - - - - -
28/04:00pm 31.5 N 9 11 1006.9 - 0.0 - - - - - - -
28/03:30pm 31.6 N 10 13 1007.3 - 0.0 - - - - - - -
28/03:00pm 31.2 N 10 12 1007.7 - 0.0 - - - - - - -
28/02:30pm 31.6 N 9 11 1008.0 - 0.0 - - - - - - -
28/02:00pm 31.6 NNE 8 11 1008.6 - 0.0 - - - - - - -
28/01:30pm 31.9 NNE 8 10 1008.8 - 0.0 - - - - - - -
28/01:00pm 31.9 NNE 8 10 1009.2 - 0.0 - - - - - - -
28/12:30pm 32.0 NNE 7 9 1009.3 - 0.0 - - - - - - -
28/12:00pm 32.6 ENE 6 8 1009.8 - 0.0 - - - - - - -
28/11:30am 31.7 ESE 6 8 1009.8 - 0.0 - - - - - - -
28/11:00am 32.0 SE 5 7 1010.0 - 0.0 - - - - - - -
28/10:30am 31.5 S 5 7 1010.0 - 0.0 - - - - - - -
28/10:00am 31.3 SE 5 8 1010.4 - 0.0 - - - - - - -
28/09:30am 30.7 SE 5 8 1010.2 - 0.0 - - - - - - -
28/09:00am 30.8 SSE 6 9 1010.2 - 0.0 - - - - - - -
28/08:30am 29.8 SSE 6 7 1010.1 - 0.0 - - - - - - -
28/08:00am 29.9 S 4 5 1009.8 - 0.0 - - - - - - -
28/07:30am 29.1 S 2 4 1009.5 - 0.0 - - - - - - -
28/07:00am 28.1 CALM 0 0 1009.4 - 0.0 - - - - - - -
28/06:30am 27.9 CALM 0 0 1009.2 - 0.0 - - - - - - -
28/06:00am 28.1 E 2 3 1008.8 - 0.0 - - - - - - -
28/05:30am 28.2 ENE 4 5 1008.6 - 0.0 - - - - - - -
28/05:00am 28.2 NNE 3 5 1008.3 - 0.0 - - - - - - -
28/04:30am 28.3 NE 4 5 1008.2 - 0.0 - - - - - - -
28/04:00am 28.4 NE 4 6 1008.4 - 0.0 - - - - - - -
28/03:30am 28.5 SE 2 3 1008.2 - 0.0 - - - - - - -
28/03:00am 28.5 CALM 0 1 1008.5 - 0.0 - - - - - - -
28/02:30am 28.6 N 3 4 1008.7 - 0.0 - - - - - - -
28/02:00am 28.6 CALM 0 0 1008.9 - 0.0 - - - - - - -
28/01:30am 28.6 CALM 0 0 1009.3 - 0.0 - - - - - - -
28/01:00am 28.5 CALM 0 0 1009.6 - 0.0 - - - - - - -
28/12:30am 28.6 CALM 0 0 1009.9 - 0.0 - - - - - - -
28/12:00am 28.5 CALM 0 0 1010.2 - 0.0 - - - - - - -
 
Date/Time
CST
Temp

°C
Wind Pressure Rain
since 9am
mm
Weather Cloud Vis
km
Sea
Height
m
Swell
Dir
 
Speed
knots
Gust
knots
hPa Trend Height
m
Period
s
Dir
27/11:30pm 28.3 N 3 5 1010.7 - 0.0 - - - - - - -
27/11:00pm 28.8 NNW 3 4 1010.9 - 0.0 - - - - - - -
27/10:30pm 28.6 NW 3 4 1010.5 - 0.0 - - - - - - -
27/10:00pm 28.5 NNW 4 4 1010.3 - 0.0 - - - - - - -
27/09:30pm 29.1 N 4 5 1010.0 - 0.0 - - - - - - -
27/09:00pm 29.2 N 4 5 1009.7 - 0.0 - - - - - - -
27/08:30pm 28.9 N 5 7 1009.2 - 0.0 - - - - - - -
27/08:00pm 29.2 ENE 3 4 1008.8 - 0.0 - - - - - - -
27/07:30pm 29.2 ENE 3 4 1008.2 - 0.0 - - - - - - -
27/07:00pm 29.5 E 5 7 1007.9 - 0.0 - - - - - - -
27/06:30pm 29.9 ENE 6 7 1007.4 - 0.0 - - - - - - -
27/06:00pm 30.7 ENE 5 7 1007.2 - 0.0 - - - - - - -
27/05:30pm 31.2 E 6 7 1007.2 - 0.0 - - - - - - -
27/05:00pm 30.8 ESE 8 10 1007.4 - 0.0 - - - - - - -
27/04:30pm 31.2 E 6 8 1007.7 - 0.0 - - - - - - -
27/04:00pm 31.3 E 8 10 1008.0 - 0.0 - - - - - - -
27/03:30pm 30.9 ENE 12 15 1008.5 - 0.0 - - - - - - -
27/03:00pm 31.4 ENE 15 17 1008.6 - 0.0 - - - - - - -
27/02:30pm 31.8 NE 16 20 1008.5 - 0.0 - - - - - - -
27/02:00pm 30.5 ENE 20 23 1009.0 - 0.0 - - - - - - -
27/01:30pm 32.4 ENE 10 14 1009.3 - 0.0 - - - - - - -
27/01:00pm 32.5 ENE 8 10 1009.5 - 0.0 - - - - - - -
27/12:30pm 32.2 ENE 7 9 1009.6 - 0.0 - - - - - - -
27/12:00pm 31.9 ENE 7 9 1009.8 - 0.0 - - - - - - -
27/11:30am 32.2 ENE 7 9 1009.7 - 0.0 - - - - - - -
27/11:00am 31.6 ENE 9 10 1009.9 - 0.0 - - - - - - -
27/10:30am 31.7 ENE 9 11 1010.1 - 0.0 - - - - - - -
27/10:00am 31.4 NE 7 9 1010.4 - 0.0 - - - - - - -
27/09:30am 31.5 ENE 7 9 1010.1 - 0.0 - - - - - - -
27/09:00am 30.9 ENE 6 8 1009.8 - 0.0 - - - - - - -
27/08:30am 30.8 E 5 6 1009.6 - 0.0 - - - - - - -
27/08:00am 30.1 ENE 5 7 1009.4 - 0.0 - - - - - - -
27/07:30am 29.7 ENE 5 7 1009.0 - 0.0 - - - - - - -
27/07:00am 29.0 NE 5 6 1008.5 - 0.0 - - - - - - -
27/06:30am 28.7 NE 5 7 1008.0 - 0.0 - - - - - - -
27/06:00am 28.5 NNE 5 7 1007.8 - 0.0 - - - - - - -
27/05:30am 28.6 NNE 6 8 1007.5 - 0.0 - - - - - - -
27/05:00am 28.7 NE 9 10 1007.4 - 0.0 - - - - - - -
27/04:30am 28.8 NNE 8 10 1007.1 - 0.0 - - - - - - -
27/04:00am 28.7 NE 8 10 1007.2 - 0.0 - - - - - - -
27/03:30am 28.8 NNE 8 9 1007.2 - 0.0 - - - - - - -
27/03:00am 28.8 NNE 7 8 1007.3 - 0.0 - - - - - - -
27/02:30am 28.8 NNE 7 9 1007.4 - 0.0 - - - - - - -
27/02:00am 28.8 NE 8 10 1007.7 - 0.0 - - - - - - -
27/01:30am 28.8 NE 8 10 1007.6 - 0.0 - - - - - - -
27/01:00am 28.7 NE 7 8 1008.0 - 0.0 - - - - - - -
27/12:30am 28.8 NE 7 9 1008.1 - 0.0 - - - - - - -
27/12:00am 29.0 NE 8 10 1008.4 - 0.0 - - - - - - -
 
Date/Time
CST
Temp

°C
Wind Pressure Rain
since 9am
mm
Weather Cloud Vis
km
Sea
Height
m
Swell
Dir
 
Speed
knots
Gust
knots
hPa Trend Height
m
Period
s
Dir
26/11:30pm 28.9 NE 8 9 1008.5 - 0.0 - - - - - - -
26/11:00pm 29.0 NE 9 11 1008.6 - 0.0 - - - - - - -
26/10:30pm 29.0 NE 10 11 1008.4 - 0.0 - - - - - - -
26/10:00pm 29.0 NE 9 11 1008.4 - 0.0 - - - - - - -
26/09:30pm 29.1 ENE 9 11 1008.4 - 0.0 - - - - - - -
26/09:00pm 29.1 ENE 8 9 1008.2 - 0.0 - - - - - - -
26/08:30pm 29.1 NE 8 11 1007.7 - 0.0 - - - - - - -
26/08:00pm 29.2 NNE 9 11 1007.0 - 0.0 - - - - - - -
26/07:30pm 29.3 ENE 11 13 1006.4 - 0.0 - - - - - - -
26/07:00pm 29.7 NE 11 15 1006.5 - 0.0 - - - - - - -
26/06:30pm 30.1 NE 12 14 1006.3 - 0.0 - - - - - - -

Other Formats:

Comma delimited format used in spreadsheet applications
http://www.bom.gov.au/fwo/IDD60701/IDD60701.94102.axf

JavaScript Object Notation format (JSON) in row-major order
http://www.bom.gov.au/fwo/IDD60701/IDD60701.94102.json